Time;durP1;ratioP1;P1;durP2;ratioP2;P2;SDS_P1;SDS_P2;PMS_P1;PMS_P2;Temp;Humidity;BMP_temperature;BMP_pressure;BME280_temperature;BME280_humidity;BME280_pressure;Samples;Min_cycle;Max_cycle;Signal;HPM_P1;HPM_P2
2022/01/25 00:09:21;;;;;;;20.02;7.90;;;;;;;-0.27;47.09;100426.56;4395296;32;20207;-85
2022/01/25 00:31:13;;;;;;;20.12;7.68;;;;;;;0.14;46.08;100422.00;4439856;32;20155;-86
2022/01/25 00:33:41;;;;;;;22.65;7.62;;;;;;;0.10;46.09;100403.81;4440067;32;20073;-86
2022/01/25 00:36:08;;;;;;;21.73;7.50;;;;;;;0.13;46.42;100412.47;4439645;32;20116;-86
2022/01/25 00:38:34;;;;;;;21.08;8.82;;;;;;;0.17;46.63;100416.87;4426242;32;20467;-85
2022/01/25 00:41:00;;;;;;;19.80;7.80;;;;;;;0.17;46.69;100418.56;4439890;32;20085;-86
2022/01/25 00:43:27;;;;;;;20.45;6.97;;;;;;;0.12;46.42;100407.28;4439829;32;20082;-85
2022/01/25 00:45:57;;;;;;;19.80;7.10;;;;;;;0.27;45.85;100412.69;4439704;32;20163;-86
2022/01/25 00:48:32;;;;;;;18.90;7.55;;;;;;;0.28;45.58;100405.75;4425970;32;20112;-85
2022/01/25 00:51:16;;;;;;;19.30;7.43;;;;;;;0.33;45.40;100409.31;4426305;32;20082;-86
2022/01/25 00:53:57;;;;;;;20.60;7.47;;;;;;;0.07;45.54;100401.16;4440270;32;20077;-85
2022/01/25 00:56:24;;;;;;;19.45;7.68;;;;;;;0.25;45.26;100404.00;4427065;32;20140;-85
2022/01/25 00:58:50;;;;;;;19.90;7.62;;;;;;;0.21;45.20;100398.75;4439812;32;20205;-85
2022/01/25 01:01:20;;;;;;;22.90;8.13;;;;;;;0.28;45.27;100400.59;4439503;32;20449;-85
2022/01/25 01:03:48;;;;;;;20.17;7.12;;;;;;;0.17;45.47;100392.66;4426018;32;20442;-85
2022/01/25 01:06:14;;;;;;;;;;;;;;;0.22;45.89;100395.31;4440043;32;20120;-86
2022/01/25 01:08:41;;;;;;;19.08;6.18;;;;;;;0.20;46.12;100395.28;4451287;32;20046;-85
2022/01/25 01:11:10;;;;;;;20.83;7.32;;;;;;;0.18;46.11;100387.50;4439435;32;20088;-85
2022/01/25 01:45:30;;;;;;;20.00;6.93;;;;;;;0.16;46.83;100349.47;4427202;32;20147;-85
2022/01/25 01:48:02;;;;;;;21.00;7.00;;;;;;;0.16;47.19;100346.88;4439614;32;20097;-84
2022/01/25 01:50:31;;;;;;;17.52;7.32;;;;;;;0.20;47.15;100338.28;4425588;32;20461;-85
2022/01/25 01:52:58;;;;;;;18.00;6.80;;;;;;;0.28;46.84;100343.56;4439204;32;20574;-85
2022/01/25 01:55:25;;;;;;;18.05;6.53;;;;;;;0.24;46.65;100331.41;4412109;32;20111;-85
2022/01/25 01:57:51;;;;;;;16.15;7.47;;;;;;;0.24;46.71;100339.19;4425026;32;20164;-85
2022/01/25 02:00:18;;;;;;;20.05;7.43;;;;;;;0.15;46.70;100329.56;4425659;32;20377;-86
2022/01/25 02:02:44;;;;;;;18.60;7.40;;;;;;;0.08;46.91;100340.69;4424845;32;20882;-85
2022/01/25 02:05:10;;;;;;;17.25;6.57;;;;;;;0.04;46.94;100334.63;4424972;32;20093;-87
2022/01/25 02:07:35;;;;;;;18.42;7.37;;;;;;;0.08;46.91;100336.41;4434976;32;20094;-87
2022/01/25 02:10:04;;;;;;;19.90;7.60;;;;;;;0.01;47.20;100331.13;4410128;32;20105;-86
2022/01/25 02:12:30;;;;;;;19.15;7.22;;;;;;;-0.01;47.25;100316.41;4397320;32;20097;-84
2022/01/25 02:14:56;;;;;;;17.05;7.18;;;;;;;0.01;47.45;100326.81;4409838;32;20132;-85
2022/01/25 02:23:20;;;;;;;19.08;6.87;;;;;;;0.09;47.35;100314.81;4423192;32;20961;-86
2022/01/25 02:25:51;;;;;;;18.48;6.62;;;;;;;0.10;47.54;100310.53;4410340;32;20109;-85
2022/01/25 02:28:17;;;;;;;19.42;7.05;;;;;;;0.15;47.44;100320.06;4409596;32;20102;-86
2022/01/25 02:30:43;;;;;;;19.62;7.70;;;;;;;0.13;47.40;100305.34;4409360;32;20506;-85
2022/01/25 02:33:09;;;;;;;19.95;7.60;;;;;;;0.17;47.42;100313.22;4408951;32;20086;-86
2022/01/25 02:35:35;;;;;;;19.12;7.40;;;;;;;0.16;47.33;100303.69;4409743;32;20085;-86
2022/01/25 02:38:00;;;;;;;20.42;7.43;;;;;;;0.24;47.28;100305.50;4423883;32;20114;-86
2022/01/25 02:40:26;;;;;;;19.85;7.30;;;;;;;0.14;47.48;100307.12;4409509;32;20089;-86
2022/01/25 02:42:52;;;;;;;20.05;7.70;;;;;;;0.18;47.19;100288.16;4423280;32;20156;-86
2022/01/25 02:45:22;;;;;;;18.95;7.37;;;;;;;0.18;47.34;100294.19;4409230;32;20135;-87
2022/01/25 02:50:35;;;;;;;20.05;7.97;;;;;;;0.12;47.84;100290.69;4413807;32;20498;-86
2022/01/25 02:53:10;;;;;;;21.45;7.68;;;;;;;-0.30;48.90;100302.22;4411137;32;20147;-85
2022/01/25 02:55:35;;;;;;;19.52;7.57;;;;;;;-0.15;48.58;100284.31;4425092;32;20547;-85
2022/01/25 02:58:01;;;;;;;23.48;7.82;;;;;;;-0.06;48.56;100279.25;4411292;32;20098;-85
2022/01/25 03:00:27;;;;;;;20.70;7.97;;;;;;;-0.10;48.58;100281.75;4411740;32;20129;-85
2022/01/25 03:02:52;;;;;;;19.35;7.72;;;;;;;-0.08;48.56;100268.00;4411234;32;20105;-85
2022/01/25 03:05:18;;;;;;;19.58;7.60;;;;;;;-0.04;48.59;100282.72;4425100;32;20369;-85
2022/01/25 03:07:44;;;;;;;19.75;7.57;;;;;;;-0.14;48.92;100261.84;4398358;32;20128;-85
2022/01/25 03:10:12;;;;;;;22.27;7.93;;;;;;;-0.07;48.75;100266.25;4424862;32;20710;-85
2022/01/25 03:12:53;;;;;;;21.83;7.75;;;;;;;-0.02;48.65;100259.41;4425528;32;20154;-85
2022/01/25 03:17:51;;;;;;;19.65;7.95;;;;;;;-0.03;48.63;100257.69;4424799;32;20409;-84
2022/01/25 03:20:21;;;;;;;18.20;6.97;;;;;;;-0.14;48.95;100254.94;4411671;32;20498;-85
2022/01/25 03:25:25;;;;;;;22.58;8.57;;;;;;;0.03;48.70;100244.78;4425611;32;20094;-86
2022/01/25 03:27:53;;;;;;;25.52;7.72;;;;;;;-0.11;49.10;100251.53;4424751;32;20741;-86
2022/01/25 03:30:21;;;;;;;18.98;7.40;;;;;;;-0.07;49.07;100254.16;4424753;32;20204;-86
2022/01/25 03:32:47;;;;;;;22.40;7.75;;;;;;;-0.31;49.46;100244.37;4424814;32;20111;-86
2022/01/25 03:35:12;;;;;;;20.00;7.40;;;;;;;-0.08;49.16;100246.38;4397357;32;20094;-85
2022/01/25 03:37:38;;;;;;;20.48;7.25;;;;;;;-0.09;49.12;100239.47;4424896;32;20500;-85
2022/01/25 03:40:04;;;;;;;17.58;6.37;;;;;;;-0.02;49.31;100233.50;4424970;32;20339;-85
2022/01/25 03:42:35;;;;;;;19.25;7.75;;;;;;;0.00;49.23;100229.22;4410558;32;20098;-86
2022/01/25 03:45:00;;;;;;;22.23;7.65;;;;;;;-0.47;50.20;100237.25;4400010;32;20132;-86
2022/01/25 03:47:42;;;;;;;19.33;7.62;;;;;;;-0.12;49.61;100232.50;4440544;32;20101;-86
2022/01/25 03:50:11;;;;;;;20.08;7.62;;;;;;;0.01;49.53;100235.28;4412007;32;20176;-86
2022/01/25 03:52:37;;;;;;;20.92;7.05;;;;;;;-0.04;49.64;100217.06;4424848;32;20479;-86
2022/01/25 03:55:04;;;;;;;19.60;7.90;;;;;;;-0.17;50.11;100212.59;4398051;32;20117;-87
2022/01/25 03:57:33;;;;;;;19.85;7.72;;;;;;;0.10;49.76;100218.09;4410463;32;20106;-87
2022/01/25 04:00:00;;;;;;;19.62;7.75;;;;;;;0.15;50.00;100208.62;4425364;32;20120;-86
2022/01/25 04:02:28;;;;;;;22.37;7.32;;;;;;;-0.03;50.50;100203.28;4398036;32;20540;-85
2022/01/25 04:04:56;;;;;;;19.48;7.37;;;;;;;0.24;49.92;100201.84;4424564;32;20085;-86
2022/01/25 04:07:42;;;;;;;21.02;7.80;;;;;;;0.31;49.93;100198.44;4410784;32;20160;-86
2022/01/25 04:10:13;;;;;;;19.92;7.05;;;;;;;0.39;49.58;100189.03;4424536;32;20102;-85
2022/01/25 04:12:45;;;;;;;20.50;7.15;;;;;;;0.35;50.02;100188.12;4411657;32;20089;-86
2022/01/25 04:15:13;;;;;;;21.87;7.37;;;;;;;0.49;49.71;100187.38;4409646;32;20465;-86
2022/01/25 04:17:45;;;;;;;17.23;6.45;;;;;;;0.62;49.39;100193.53;4422717;32;20152;-87
2022/01/25 04:20:22;;;;;;;19.37;6.93;;;;;;;0.48;49.86;100186.50;4411264;32;20630;-86
2022/01/25 04:25:32;;;;;;;18.37;7.07;;;;;;;0.75;49.50;100182.38;4424539;32;20108;-85
2022/01/25 04:28:01;;;;;;;20.88;6.97;;;;;;;0.73;49.26;100168.53;4424223;32;20137;-86
2022/01/25 04:30:31;;;;;;;22.48;8.02;;;;;;;0.86;49.13;100167.78;4424347;32;20085;-86
2022/01/25 04:33:03;;;;;;;18.27;6.45;;;;;;;0.88;49.13;100160.00;4424440;32;20102;-86
2022/01/25 04:49:12;;;;;;;15.23;5.68;;;;;;;0.92;51.29;100139.28;4424362;32;20161;-87
2022/01/25 04:59:33;;;;;;;18.73;6.95;;;;;;;1.12;51.50;100133.31;4424230;32;20437;-86
2022/01/25 05:02:12;;;;;;;16.87;6.22;;;;;;;1.36;50.92;100141.25;4411922;32;20093;-87
2022/01/25 05:04:46;;;;;;;16.50;6.65;;;;;;;1.16;51.61;100135.09;4398931;32;20085;-87
2022/01/25 05:09:45;;;;;;;17.33;6.40;;;;;;;1.29;51.59;100123.91;4409673;32;20204;-87
2022/01/25 05:12:14;;;;;;;19.45;6.90;;;;;;;1.24;52.13;100127.34;4423946;32;20163;-87
2022/01/25 05:14:57;;;;;;;16.85;5.87;;;;;;;1.29;51.80;100123.91;4409826;32;20125;-86
2022/01/25 05:17:31;;;;;;;16.35;5.93;;;;;;;1.19;52.64;100111.75;4424072;32;20116;-86
2022/01/25 05:22:41;;;;;;;15.43;5.65;;;;;;;1.29;52.62;100108.31;4423900;32;20124;-86
2022/01/25 05:25:09;;;;;;;16.85;6.30;;;;;;;1.37;52.53;100122.22;4410633;32;20397;-85
2022/01/25 05:27:35;;;;;;;17.55;6.45;;;;;;;1.20;53.02;100107.41;4409735;32;20098;-86
2022/01/25 05:30:01;;;;;;;16.83;6.43;;;;;;;1.26;52.75;100105.72;4409898;32;20136;-86
2022/01/25 05:32:27;;;;;;;17.37;6.90;;;;;;;1.34;52.58;100111.81;4409959;32;20405;-86
2022/01/25 05:34:56;;;;;;;16.77;6.12;;;;;;;1.23;52.62;100100.50;4410452;32;20161;-87
2022/01/25 05:37:21;;;;;;;19.35;6.68;;;;;;;1.31;52.59;100109.22;4423726;32;20365;-87
2022/01/25 05:39:49;;;;;;;18.87;7.25;;;;;;;1.21;52.88;100102.22;4409343;32;20160;-85
2022/01/25 05:42:23;;;;;;;18.83;6.85;;;;;;;1.04;53.52;100101.28;4423580;32;20458;-85
2022/01/25 05:47:31;;;;;;;17.52;6.85;;;;;;;1.08;53.54;100079.69;4398461;32;20140;-84
2022/01/25 05:49:58;;;;;;;19.40;6.12;;;;;;;1.22;53.22;100072.84;4410669;32;20085;-85
2022/01/25 05:52:29;;;;;;;16.42;6.50;;;;;;;1.05;54.12;100097.84;4396622;32;20106;-86
2022/01/25 05:55:01;;;;;;;14.48;5.80;;;;;;;0.74;55.29;100095.06;4409728;32;20093;-87
2022/01/25 05:57:30;;;;;;;18.60;6.25;;;;;;;1.10;54.46;100094.41;4423573;32;20195;-89
2022/01/25 06:00:05;;;;;;;20.15;6.72;;;;;;;1.25;54.03;100092.75;4409869;32;20117;-88
2022/01/25 06:02:35;;;;;;;17.62;6.75;;;;;;;0.96;54.85;100089.13;4423435;32;20101;-88
2022/01/25 06:05:01;;;;;;;17.00;6.68;;;;;;;1.41;53.99;100094.56;4409879;32;20116;-91
2022/01/25 06:07:29;;;;;;;17.17;6.85;;;;;;;1.55;53.71;100092.84;4423427;32;20417;-90
2022/01/25 06:09:55;;;;;;;19.40;6.65;;;;;;;1.61;53.77;100098.94;4409669;32;20189;-89
2022/01/25 06:12:23;;;;;;;18.23;6.78;;;;;;;1.55;54.24;100103.25;4410008;32;20098;-87
2022/01/25 06:14:48;;;;;;;17.30;6.68;;;;;;;1.45;54.19;100096.28;4423651;32;20490;-88
2022/01/25 06:17:14;;;;;;;18.98;7.18;;;;;;;1.65;53.90;100095.47;4408598;32;20120;-88
2022/01/25 06:19:50;;;;;;;20.20;7.53;;;;;;;1.35;55.05;100097.09;4433261;32;20167;-88
2022/01/25 06:22:17;;;;;;;19.10;7.75;;;;;;;1.72;54.15;100089.41;4428196;32;20092;-87
2022/01/25 06:24:48;;;;;;;23.40;8.88;;;;;;;1.88;53.02;100096.41;4440787;32;20127;-89
2022/01/25 06:27:19;;;;;;;19.15;6.85;;;;;;;1.90;52.37;100078.22;4440738;32;20554;-89
2022/01/25 06:29:52;;;;;;;20.73;8.38;;;;;;;1.77;53.11;100082.50;4414047;32;20158;-89
2022/01/25 06:32:19;;;;;;;21.50;8.00;;;;;;;1.74;53.12;100083.38;4440972;32;20101;-86
2022/01/25 06:34:45;;;;;;;19.73;7.30;;;;;;;1.87;52.53;100080.78;4427713;32;20123;-85
2022/01/25 06:37:12;;;;;;;19.92;7.87;;;;;;;1.83;52.65;100086.84;4440856;32;20089;-86
2022/01/25 06:39:38;;;;;;;24.70;8.13;;;;;;;1.97;52.12;100066.97;4427086;32;20101;-86
2022/01/25 06:42:07;;;;;;;21.98;8.45;;;;;;;2.02;52.09;100072.16;4440940;32;20162;-87
2022/01/25 06:44:35;;;;;;;18.27;7.75;;;;;;;1.89;52.36;100074.75;4441337;32;20835;-86
2022/01/25 06:47:01;;;;;;;22.35;7.78;;;;;;;2.03;52.45;100074.75;4396805;32;20066;-86
2022/01/25 06:49:27;;;;;;;20.12;7.62;;;;;;;1.96;52.86;100073.00;4407222;32;20110;-86
2022/01/25 06:51:52;;;;;;;19.08;7.50;;;;;;;1.88;53.47;100074.75;4411111;32;20449;-85
2022/01/25 06:54:21;;;;;;;19.75;7.32;;;;;;;2.11;52.98;100078.22;4411037;32;20163;-86
2022/01/25 06:56:46;;;;;;;20.20;8.10;;;;;;;2.00;53.30;100066.94;4425650;32;20097;-86
2022/01/25 06:59:12;;;;;;;21.95;8.68;;;;;;;2.12;53.20;100066.94;4410977;32;20129;-89
2022/01/25 07:01:38;;;;;;;23.75;10.23;;;;;;;2.17;53.02;100067.81;4411258;32;20123;-87
2022/01/25 07:04:03;;;;;;;26.05;10.00;;;;;;;2.24;51.90;100070.41;4425064;32;20158;-86
2022/01/25 07:06:29;;;;;;;25.55;9.68;;;;;;;2.29;51.28;100069.56;4425826;32;20094;-86
2022/01/25 07:08:55;;;;;;;20.02;8.77;;;;;;;2.26;50.54;100053.97;4425236;32;20102;-85
2022/01/25 07:11:21;;;;;;;23.02;9.20;;;;;;;2.35;49.59;100066.94;4425482;32;20120;-85
2022/01/25 07:13:47;;;;;;;25.05;10.02;;;;;;;2.34;49.48;100056.56;4411302;32;20141;-86
2022/01/25 07:16:13;;;;;;;22.37;9.65;;;;;;;2.41;49.30;100057.41;4425130;32;20162;-85
2022/01/25 07:18:39;;;;;;;24.35;9.23;;;;;;;2.55;49.00;100056.53;4411578;32;20106;-83
2022/01/25 07:21:07;;;;;;;27.90;10.73;;;;;;;2.62;48.73;100061.72;4411115;32;20207;-85
2022/01/25 07:23:33;;;;;;;26.80;10.35;;;;;;;2.42;49.06;100060.03;4424791;32;20082;-82
2022/01/25 07:25:58;;;;;;;24.40;10.18;;;;;;;2.56;48.75;100062.59;4411082;32;20343;-82
2022/01/25 07:28:24;;;;;;;25.65;10.38;;;;;;;2.60;48.62;100076.47;4425634;32;20156;-83
2022/01/25 07:30:50;;;;;;;26.30;10.20;;;;;;;2.71;48.62;100066.91;4405750;32;20161;-82
2022/01/25 07:33:15;;;;;;;24.30;10.00;;;;;;;2.86;48.57;100059.06;4423839;32;20105;-83
2022/01/25 07:35:41;;;;;;;24.10;10.07;;;;;;;2.89;48.13;100069.47;4410589;32;20123;-82
2022/01/25 07:38:06;;;;;;;27.10;10.45;;;;;;;2.94;47.99;100067.72;4410939;32;20110;-82
2022/01/25 07:40:34;;;;;;;27.45;10.63;;;;;;;2.94;47.76;100059.91;4410731;32;20389;-82
2022/01/25 07:43:00;;;;;;;25.98;10.40;;;;;;;2.78;47.71;100071.22;4424581;32;20124;-81
2022/01/25 07:45:28;;;;;;;28.50;10.65;;;;;;;3.04;47.01;100067.69;4410543;32;20085;-82
2022/01/25 07:47:54;;;;;;;;;;;;;;;2.98;47.29;100062.50;4428527;32;20145;-81
2022/01/25 07:50:19;;;;;;;23.30;10.07;;;;;;;3.05;47.57;100072.00;4427096;32;20021;-80
2022/01/25 07:52:45;;;;;;;23.73;9.82;;;;;;;3.08;47.67;100070.28;4424684;32;20143;-87
2022/01/25 07:55:10;;;;;;;26.58;10.07;;;;;;;3.20;47.94;100074.56;4424400;32;20101;-87
2022/01/25 07:57:37;;;;;;;22.42;10.32;;;;;;;3.38;47.22;100072.75;4424425;32;20146;-83
2022/01/25 08:00:09;;;;;;;24.98;10.07;;;;;;;3.41;47.01;100070.16;4398076;32;20480;-87
2022/01/25 08:02:35;;;;;;;21.83;9.20;;;;;;;3.51;46.93;100071.81;4424227;32;20112;-88
2022/01/25 08:05:00;;;;;;;25.50;10.80;;;;;;;3.62;46.62;100072.62;4424219;32;20089;-86
2022/01/25 08:07:26;;;;;;;34.75;11.93;;;;;;;3.62;46.17;100058.75;4423791;32;20438;-87
2022/01/25 08:09:51;;;;;;;24.05;10.13;;;;;;;3.52;46.23;100060.53;4424381;32;20116;-85
2022/01/25 08:12:17;;;;;;;26.50;11.20;;;;;;;3.63;46.49;100058.75;4424892;32;20491;-85
2022/01/25 08:14:44;;;;;;;25.12;11.18;;;;;;;3.71;46.42;100056.94;4424448;32;20200;-89
2022/01/25 08:17:09;;;;;;;28.27;11.05;;;;;;;3.84;46.08;100054.25;4410143;32;20105;-78
2022/01/25 08:19:38;;;;;;;24.42;10.23;;;;;;;3.98;45.85;100048.94;4409814;32;20110;-85
2022/01/25 08:22:04;;;;;;;24.00;10.88;;;;;;;4.09;45.52;100047.13;4422159;32;20090;-86
2022/01/25 08:24:29;;;;;;;26.48;10.32;;;;;;;4.18;45.45;100040.97;4423276;32;20508;-84
2022/01/25 08:27:00;;;;;;;25.05;10.73;;;;;;;4.27;45.26;100033.09;4416776;32;20426;-86
2022/01/25 08:29:26;;;;;;;24.17;10.80;;;;;;;4.34;44.99;100032.97;4410875;32;20121;-85
2022/01/25 08:31:51;;;;;;;25.42;11.52;;;;;;;4.40;44.71;100036.41;4410089;32;20149;-83
2022/01/25 08:34:19;;;;;;;23.52;11.25;;;;;;;4.40;44.76;100039.88;4409947;32;20148;-85
2022/01/25 08:36:45;;;;;;;;;;;;;;;4.48;44.70;100030.25;4424356;32;20160;-84
2022/01/25 08:39:10;;;;;;;29.27;11.55;;;;;;;4.59;44.50;100039.72;4424043;32;19974;-81
2022/01/25 08:41:36;;;;;;;25.73;10.95;;;;;;;4.59;44.42;100032.75;4410083;32;20190;-86
2022/01/25 08:44:02;;;;;;;28.30;11.40;;;;;;;4.51;44.66;100032.81;4410832;32;20472;-86
2022/01/25 08:46:27;;;;;;;31.90;12.63;;;;;;;4.58;44.73;100030.16;4424017;32;20128;-85
2022/01/25 08:48:53;;;;;;;30.30;12.10;;;;;;;4.75;44.41;100022.16;4409781;32;20136;-81
2022/01/25 08:51:19;;;;;;;26.45;11.20;;;;;;;4.62;44.47;100037.94;4423136;32;20124;-82
2022/01/25 08:53:44;;;;;;;24.80;11.90;;;;;;;4.89;44.19;100031.56;4423179;32;20090;-82
2022/01/25 08:56:10;;;;;;;26.02;11.68;;;;;;;4.92;44.33;100028.03;4423079;32;20149;-82
2022/01/25 08:58:36;;;;;;;26.00;11.60;;;;;;;4.91;44.63;100028.94;4401115;32;20101;-83
2022/01/25 09:01:02;;;;;;;27.20;11.88;;;;;;;4.96;45.00;100021.03;4422848;32;20140;-81
2022/01/25 09:03:28;;;;;;;27.27;12.50;;;;;;;5.16;44.36;100023.41;4398361;32;20110;-81
2022/01/25 09:05:54;;;;;;;29.17;13.25;;;;;;;5.18;44.18;100019.03;4408050;32;20158;-82
2022/01/25 09:08:22;;;;;;;28.67;12.82;;;;;;;5.10;44.59;100030.44;4422383;32;20124;-81
2022/01/25 09:10:57;;;;;;;26.67;12.20;;;;;;;5.22;44.51;100024.19;4424408;32;20540;-81
2022/01/25 09:13:26;;;;;;;31.02;13.30;;;;;;;5.22;44.37;100029.44;4411443;32;20450;-81
2022/01/25 09:15:52;;;;;;;28.70;12.15;;;;;;;5.29;44.65;100030.19;4424465;32;20098;-81
2022/01/25 09:18:18;;;;;;;29.40;12.65;;;;;;;5.46;44.36;100029.97;4424200;32;20397;-81
2022/01/25 09:20:44;;;;;;;29.73;13.00;;;;;;;5.42;44.55;100026.53;4424433;32;20093;-82
2022/01/25 09:23:09;;;;;;;29.37;12.45;;;;;;;5.55;44.18;100024.63;4424530;32;20086;-82
2022/01/25 09:25:35;;;;;;;27.13;12.80;;;;;;;5.61;43.88;100018.44;4410405;32;20488;-82
2022/01/25 09:28:01;;;;;;;31.92;13.30;;;;;;;5.67;44.10;100016.59;4410049;32;20472;-81
2022/01/25 09:30:28;;;;;;;28.15;12.95;;;;;;;5.86;43.70;100021.56;4410087;32;20149;-82
2022/01/25 09:32:54;;;;;;;31.92;13.80;;;;;;;6.00;43.47;100003.06;4424105;32;20098;-82
2022/01/25 09:35:19;;;;;;;29.25;13.35;;;;;;;6.02;43.54;100015.22;4424241;32;20381;-81
2022/01/25 09:37:45;;;;;;;30.60;13.18;;;;;;;5.92;43.90;100013.63;4424549;32;20085;-81
2022/01/25 09:40:12;;;;;;;31.85;14.00;;;;;;;6.05;43.51;100001.25;4397702;32;20132;-81
2022/01/25 09:42:39;;;;;;;34.00;13.55;;;;;;;6.08;43.59;99994.22;4423939;32;20077;-88
2022/01/25 09:45:05;;;;;;;32.58;15.02;;;;;;;6.09;43.55;99993.31;4397542;32;20113;-82
2022/01/25 09:47:31;;;;;;;29.87;14.05;;;;;;;5.84;44.68;99998.03;4423862;32;20112;-82
2022/01/25 09:49:56;;;;;;;32.88;14.25;;;;;;;6.12;44.36;99995.00;4424037;32;20102;-82
2022/01/25 09:52:22;;;;;;;30.30;14.15;;;;;;;5.96;43.58;99988.31;4423591;32;20077;-83
2022/01/25 09:55:01;;;;;;;33.88;15.20;;;;;;;6.14;43.17;99987.97;4409688;32;20448;-83
2022/01/25 09:57:26;;;;;;;;;;;;;;;6.26;42.98;99979.09;4410374;32;20106;-83
2022/01/25 09:59:52;;;;;;;31.60;14.35;;;;;;;6.33;43.23;99977.22;4410174;32;20328;-83
2022/01/25 10:02:40;;;;;;;34.38;14.73;;;;;;;6.33;43.60;99975.44;4397356;32;20098;-83
2022/01/25 10:05:26;;;;;;;34.58;15.00;;;;;;;6.34;43.67;99981.56;4397401;32;20157;-83
2022/01/25 10:07:59;;;;;;;34.65;15.05;;;;;;;6.36;43.46;99958.84;4410586;32;20097;-82
2022/01/25 10:10:27;;;;;;;33.95;14.57;;;;;;;5.97;43.77;99972.59;4423537;32;20606;-83
2022/01/25 10:12:55;;;;;;;35.75;15.25;;;;;;;6.31;42.99;99958.91;4409874;32;20090;-82
2022/01/25 10:15:25;;;;;;;31.20;12.73;;;;;;;6.47;43.21;99964.72;4423357;32;20495;-84
2022/01/25 10:17:50;;;;;;;29.98;12.93;;;;;;;6.29;44.22;99963.31;4423616;32;20140;-84
2022/01/25 10:20:37;;;;;;;29.92;12.80;;;;;;;6.50;44.37;99946.34;4423466;32;20090;-84
2022/01/25 10:23:09;;;;;;;30.98;13.18;;;;;;;6.44;45.13;99951.69;4423696;32;20090;-84
2022/01/25 10:25:38;;;;;;;30.20;11.65;;;;;;;6.39;45.42;99949.16;4423441;32;20129;-82
2022/01/25 10:28:11;;;;;;;28.65;13.32;;;;;;;6.71;45.01;99955.53;4423355;32;20498;-83
2022/01/25 10:30:46;;;;;;;28.38;12.23;;;;;;;6.85;44.53;99948.25;4422968;32;20547;-83
2022/01/25 10:33:17;;;;;;;31.23;12.05;;;;;;;6.97;44.45;99939.25;4408924;32;20109;-83
2022/01/25 10:35:43;;;;;;;23.95;10.05;;;;;;;6.94;44.76;99934.09;4422997;32;20121;-83
2022/01/25 10:38:32;;;;;;;22.65;9.82;;;;;;;6.79;45.73;99927.44;4408872;32;20148;-83
2022/01/25 10:41:02;;;;;;;;;;;;;;;6.76;46.00;99942.34;4424236;32;20107;-82
2022/01/25 10:43:29;;;;;;;26.20;10.40;;;;;;;6.77;46.40;99944.06;4409040;32;20004;-82
2022/01/25 10:46:22;;;;;;;21.83;8.82;;;;;;;6.76;46.51;99939.72;4422835;32;20265;-83
2022/01/25 10:49:12;;;;;;;19.55;8.02;;;;;;;5.99;48.45;99928.09;4382537;32;20114;-82
2022/01/25 10:51:39;;;;;;;19.40;7.72;;;;;;;6.58;47.73;99931.34;4416072;32;20154;-82
2022/01/25 10:54:06;;;;;;;18.17;8.20;;;;;;;6.30;48.54;99942.34;4408776;32;20587;-82
2022/01/25 10:56:44;;;;;;;22.53;8.57;;;;;;;6.34;48.66;99937.06;4408460;32;20160;-82
2022/01/25 10:59:18;;;;;;;20.00;8.85;;;;;;;6.32;48.61;99929.25;4422707;32;20836;-82
2022/01/25 11:01:55;;;;;;;19.58;8.25;;;;;;;6.25;48.59;99927.63;4422999;32;20469;-82
2022/01/25 11:04:34;;;;;;;19.75;7.82;;;;;;;6.29;48.46;99924.91;4422705;32;20582;-82
2022/01/25 11:07:08;;;;;;;20.92;8.45;;;;;;;6.33;48.37;99914.41;4422834;32;20201;-82
2022/01/25 11:09:42;;;;;;;22.80;8.73;;;;;;;6.21;48.49;99925.97;4411270;32;20160;-83
2022/01/25 11:12:14;;;;;;;19.83;8.70;;;;;;;6.62;47.76;99919.06;4411287;32;20508;-82
2022/01/25 11:14:50;;;;;;;22.70;9.07;;;;;;;6.74;47.39;99918.81;4398814;32;20153;-82
2022/01/25 11:17:42;;;;;;;22.58;9.52;;;;;;;6.73;47.27;99914.47;4425319;32;20123;-80
2022/01/25 11:20:08;;;;;;;22.00;9.55;;;;;;;6.68;47.48;99903.22;4407705;32;20102;-82
2022/01/25 11:22:34;;;;;;;21.75;9.23;;;;;;;6.83;47.04;99916.00;4410625;32;20090;-82
2022/01/25 11:25:03;;;;;;;23.35;8.65;;;;;;;6.86;47.06;99902.84;4424779;32;20421;-81
2022/01/25 11:27:30;;;;;;;21.02;9.50;;;;;;;6.72;47.24;99904.88;4424485;32;20143;-81
2022/01/25 11:29:59;;;;;;;23.23;10.13;;;;;;;6.86;47.18;99904.59;4424520;32;20090;-82
2022/01/25 11:32:28;;;;;;;21.45;9.00;;;;;;;6.72;47.25;99912.72;4410457;32;20169;-82
2022/01/25 11:34:54;;;;;;;20.83;8.63;;;;;;;6.67;47.21;99897.13;4424646;32;20089;-82
2022/01/25 11:37:33;;;;;;;20.37;9.32;;;;;;;6.94;46.88;99892.19;4397723;32;20141;-81
2022/01/25 11:39:58;;;;;;;23.85;8.98;;;;;;;6.81;47.50;99896.81;4410823;32;20128;-81
2022/01/25 11:42:25;;;;;;;21.00;8.43;;;;;;;6.67;48.10;99891.03;4424219;32;20110;-81
2022/01/25 11:44:56;;;;;;;18.98;7.45;;;;;;;6.32;49.52;99895.22;4424614;32;20642;-81
2022/01/25 11:47:33;;;;;;;20.35;7.93;;;;;;;6.48;49.06;99891.41;4424674;32;20101;-81
2022/01/25 11:50:07;;;;;;;22.67;9.63;;;;;;;6.34;49.75;99897.81;4411226;32;20109;-82
2022/01/25 11:52:33;;;;;;;20.90;8.23;;;;;;;6.60;48.65;99903.38;4425294;32;20118;-81
2022/01/25 11:55:21;;;;;;;20.83;8.10;;;;;;;6.70;48.30;99893.56;4398640;32;20136;-82
2022/01/25 11:57:48;;;;;;;21.40;8.40;;;;;;;6.83;48.45;99891.56;4425021;32;20090;-82
2022/01/25 12:00:15;;;;;;;22.08;8.93;;;;;;;6.65;49.03;99887.59;4424875;32;20593;-82
2022/01/25 12:02:40;;;;;;;21.95;9.02;;;;;;;6.78;48.59;99881.19;4424853;32;20126;-82
2022/01/25 12:05:26;;;;;;;20.65;8.90;;;;;;;6.91;48.39;99873.91;4425115;32;20106;-82
2022/01/25 12:08:10;;;;;;;21.35;9.18;;;;;;;7.02;48.05;99868.44;4411061;32;20117;-83
2022/01/25 12:10:41;;;;;;;24.27;9.80;;;;;;;7.05;48.01;99866.63;4411146;32;20128;-82
2022/01/25 12:13:13;;;;;;;24.37;9.55;;;;;;;7.11;47.80;99856.87;4410498;32;20160;-82
2022/01/25 12:15:39;;;;;;;23.23;9.75;;;;;;;7.09;47.69;99857.78;4424355;32;20098;-84
2022/01/25 12:18:09;;;;;;;26.33;10.07;;;;;;;7.04;48.14;99858.78;4423991;32;20098;-81
2022/01/25 12:20:47;;;;;;;22.85;9.63;;;;;;;7.08;48.25;99856.06;4411505;32;20105;-81
2022/01/25 12:23:21;;;;;;;26.37;10.30;;;;;;;7.35;47.81;99853.69;4418145;32;20090;-80
2022/01/25 12:25:56;;;;;;;22.45;9.68;;;;;;;6.90;48.61;99856.50;4421244;32;20529;-81
2022/01/25 12:28:30;;;;;;;22.55;9.70;;;;;;;7.04;48.29;99861.41;4397470;32;20651;-82
2022/01/25 12:31:00;;;;;;;24.50;10.45;;;;;;;7.05;48.32;99856.13;4406453;32;20144;-81
2022/01/25 12:33:30;;;;;;;25.55;9.75;;;;;;;6.89;48.81;99845.16;4416438;32;20168;-80
2022/01/25 12:36:03;;;;;;;23.95;10.10;;;;;;;6.21;50.54;99845.69;4400101;32;20127;-80
2022/01/25 12:38:51;;;;;;;25.42;9.45;;;;;;;5.76;52.20;99852.66;4421068;32;20128;-81
2022/01/25 12:41:20;;;;;;;23.58;10.10;;;;;;;6.14;51.45;99841.47;4389254;32;20511;-81
2022/01/25 12:43:51;;;;;;;23.75;9.85;;;;;;;6.10;51.70;99838.09;4414459;32;20162;-80
2022/01/25 12:46:24;;;;;;;25.77;9.95;;;;;;;5.91;52.18;99839.28;4421486;32;20086;-81
2022/01/25 12:48:52;;;;;;;23.20;9.68;;;;;;;5.50;53.74;99819.97;4398363;32;20496;-82
2022/01/25 12:51:20;;;;;;;23.73;9.98;;;;;;;5.87;52.71;99827.13;4417108;32;20126;-81
2022/01/25 12:53:48;;;;;;;29.85;11.25;;;;;;;5.85;52.53;99823.69;4404251;32;20124;-81
2022/01/25 12:56:29;;;;;;;23.65;10.77;;;;;;;5.85;52.31;99826.31;4411044;32;20081;-81
2022/01/25 12:59:03;;;;;;;27.35;11.52;;;;;;;5.89;51.79;99820.13;4419653;32;20090;-81
2022/01/25 13:01:29;;;;;;;26.60;10.52;;;;;;;5.57;52.51;99818.97;4390179;32;20168;-81
2022/01/25 13:04:02;;;;;;;26.27;11.00;;;;;;;5.64;52.16;99811.88;4413352;32;20102;-81
2022/01/25 13:06:36;;;;;;;26.62;11.52;;;;;;;5.49;52.56;99815.63;4407773;32;20094;-81
2022/01/25 13:09:12;;;;;;;29.63;12.50;;;;;;;5.33;52.85;99807.19;4413876;32;20484;-82
2022/01/25 13:17:07;;;;;;;27.65;11.07;;;;;;;5.39;52.27;99794.03;4413742;32;20147;-82
2022/01/25 13:19:40;;;;;;;27.23;11.02;;;;;;;5.39;52.90;99800.97;4415444;32;20102;-83
2022/01/25 13:22:18;;;;;;;25.95;10.20;;;;;;;5.46;53.10;99786.94;4420440;32;20098;-82
2022/01/25 13:24:57;;;;;;;22.45;9.73;;;;;;;5.37;53.97;99793.19;4404953;32;20097;-82
2022/01/25 13:27:26;;;;;;;20.33;9.15;;;;;;;5.35;54.71;99784.53;4416497;32;20112;-83